sensor_id;sensor_type;location;lat;lon;timestamp;noise_LAeq;noise_LA_min;noise_LA_max;noise_LA01;noise_LA95
37162;Laerm;68342;52.598;13.450;2023-04-24T00:01:10;37.92;30.63;57.40;;
37162;Laerm;68342;52.598;13.450;2023-04-24T00:03:36;38.35;31.15;60.99;;
37162;Laerm;68342;52.598;13.450;2023-04-24T00:06:01;38.05;31.53;58.27;;
37162;Laerm;68342;52.598;13.450;2023-04-24T00:08:27;38.43;31.38;58.55;;
37162;Laerm;68342;52.598;13.450;2023-04-24T00:10:53;37.96;30.94;55.56;;
37162;Laerm;68342;52.598;13.450;2023-04-24T00:13:18;38.50;31.38;57.37;;
37162;Laerm;68342;52.598;13.450;2023-04-24T00:15:43;38.29;30.82;58.42;;
37162;Laerm;68342;52.598;13.450;2023-04-24T00:18:08;37.36;30.86;56.30;;
37162;Laerm;68342;52.598;13.450;2023-04-24T00:20:34;38.44;30.36;63.32;;
37162;Laerm;68342;52.598;13.450;2023-04-24T00:23:00;37.48;29.97;54.18;;
37162;Laerm;68342;52.598;13.450;2023-04-24T00:25:25;37.94;30.28;58.63;;
37162;Laerm;68342;52.598;13.450;2023-04-24T00:27:50;38.25;30.31;59.62;;
37162;Laerm;68342;52.598;13.450;2023-04-24T00:30:16;37.95;29.93;59.39;;
37162;Laerm;68342;52.598;13.450;2023-04-24T00:32:41;39.05;30.95;59.89;;
37162;Laerm;68342;52.598;13.450;2023-04-24T00:35:06;38.85;31.36;61.71;;
37162;Laerm;68342;52.598;13.450;2023-04-24T00:37:32;38.22;31.24;59.69;;
37162;Laerm;68342;52.598;13.450;2023-04-24T00:39:57;38.38;31.15;57.20;;
37162;Laerm;68342;52.598;13.450;2023-04-24T00:42:22;40.89;30.73;57.80;;
37162;Laerm;68342;52.598;13.450;2023-04-24T00:44:48;38.52;30.52;64.40;;
37162;Laerm;68342;52.598;13.450;2023-04-24T00:47:13;39.06;30.38;61.52;;
37162;Laerm;68342;52.598;13.450;2023-04-24T00:49:39;38.49;31.05;57.31;;
37162;Laerm;68342;52.598;13.450;2023-04-24T00:52:04;38.36;30.74;59.34;;
37162;Laerm;68342;52.598;13.450;2023-04-24T00:54:33;38.44;30.43;58.00;;
37162;Laerm;68342;52.598;13.450;2023-04-24T00:56:58;38.39;31.18;60.16;;
37162;Laerm;68342;52.598;13.450;2023-04-24T00:59:25;38.23;30.53;58.85;;
37162;Laerm;68342;52.598;13.450;2023-04-24T01:01:50;38.02;30.80;57.66;;
37162;Laerm;68342;52.598;13.450;2023-04-24T01:04:16;38.84;30.33;57.47;;
37162;Laerm;68342;52.598;13.450;2023-04-24T01:06:42;40.43;30.81;61.24;;
37162;Laerm;68342;52.598;13.450;2023-04-24T01:09:08;39.60;31.92;56.92;;
37162;Laerm;68342;52.598;13.450;2023-04-24T01:11:34;38.77;31.51;57.27;;
37162;Laerm;68342;52.598;13.450;2023-04-24T01:13:59;40.60;30.93;56.13;;
37162;Laerm;68342;52.598;13.450;2023-04-24T01:16:25;38.58;31.34;56.44;;
37162;Laerm;68342;52.598;13.450;2023-04-24T01:18:50;37.68;30.80;56.89;;
37162;Laerm;68342;52.598;13.450;2023-04-24T01:21:16;37.78;30.77;55.74;;
37162;Laerm;68342;52.598;13.450;2023-04-24T01:23:43;38.61;31.34;56.83;;
37162;Laerm;68342;52.598;13.450;2023-04-24T01:26:08;38.46;32.09;57.83;;
37162;Laerm;68342;52.598;13.450;2023-04-24T01:28:34;38.90;31.70;60.01;;
37162;Laerm;68342;52.598;13.450;2023-04-24T01:30:59;39.77;32.62;60.73;;
37162;Laerm;68342;52.598;13.450;2023-04-24T01:33:24;39.00;32.51;56.09;;
37162;Laerm;68342;52.598;13.450;2023-04-24T01:35:50;40.05;34.96;54.92;;
37162;Laerm;68342;52.598;13.450;2023-04-24T01:38:16;39.56;32.41;58.22;;
37162;Laerm;68342;52.598;13.450;2023-04-24T01:40:41;38.98;33.10;55.31;;
37162;Laerm;68342;52.598;13.450;2023-04-24T01:43:06;39.01;32.41;58.04;;
37162;Laerm;68342;52.598;13.450;2023-04-24T01:45:32;38.39;32.01;56.82;;
37162;Laerm;68342;52.598;13.450;2023-04-24T01:47:57;39.46;31.86;60.71;;
37162;Laerm;68342;52.598;13.450;2023-04-24T01:50:22;39.94;33.01;58.96;;
37162;Laerm;68342;52.598;13.450;2023-04-24T01:52:48;39.05;32.30;58.77;;
37162;Laerm;68342;52.598;13.450;2023-04-24T01:55:13;37.87;31.21;57.63;;
37162;Laerm;68342;52.598;13.450;2023-04-24T01:57:38;38.91;31.66;58.24;;
37162;Laerm;68342;52.598;13.450;2023-04-24T02:00:05;38.65;31.30;58.45;;
37162;Laerm;68342;52.598;13.450;2023-04-24T02:02:31;38.77;32.42;55.23;;
37162;Laerm;68342;52.598;13.450;2023-04-24T02:04:57;38.95;33.19;59.19;;
37162;Laerm;68342;52.598;13.450;2023-04-24T02:07:22;39.47;33.30;56.93;;
37162;Laerm;68342;52.598;13.450;2023-04-24T02:09:47;39.10;31.84;56.17;;
37162;Laerm;68342;52.598;13.450;2023-04-24T02:12:13;42.42;34.14;60.08;;
37162;Laerm;68342;52.598;13.450;2023-04-24T02:14:38;43.67;33.29;57.39;;
37162;Laerm;68342;52.598;13.450;2023-04-24T02:17:04;43.99;34.51;58.53;;
37162;Laerm;68342;52.598;13.450;2023-04-24T02:19:30;44.05;34.29;58.25;;
37162;Laerm;68342;52.598;13.450;2023-04-24T02:21:55;44.32;33.31;60.23;;
37162;Laerm;68342;52.598;13.450;2023-04-24T02:24:20;44.87;33.42;59.31;;
37162;Laerm;68342;52.598;13.450;2023-04-24T02:26:46;45.61;34.67;60.04;;
37162;Laerm;68342;52.598;13.450;2023-04-24T02:29:11;43.95;33.74;59.04;;
37162;Laerm;68342;52.598;13.450;2023-04-24T02:31:36;47.47;37.14;64.24;;
37162;Laerm;68342;52.598;13.450;2023-04-24T02:34:01;41.53;35.80;62.42;;
37162;Laerm;68342;52.598;13.450;2023-04-24T02:36:27;40.33;35.52;55.60;;
37162;Laerm;68342;52.598;13.450;2023-04-24T02:38:52;40.85;33.99;64.33;;
37162;Laerm;68342;52.598;13.450;2023-04-24T02:41:17;41.29;34.59;58.93;;
37162;Laerm;68342;52.598;13.450;2023-04-24T02:43:43;41.21;35.90;59.99;;
37162;Laerm;68342;52.598;13.450;2023-04-24T02:46:08;41.39;35.18;60.33;;
37162;Laerm;68342;52.598;13.450;2023-04-24T02:48:33;42.80;36.94;57.41;;
37162;Laerm;68342;52.598;13.450;2023-04-24T02:50:58;42.27;37.14;57.03;;
37162;Laerm;68342;52.598;13.450;2023-04-24T02:53:24;41.10;35.93;53.96;;
37162;Laerm;68342;52.598;13.450;2023-04-24T02:55:49;42.57;37.17;56.69;;
37162;Laerm;68342;52.598;13.450;2023-04-24T02:58:14;43.10;37.82;56.87;;
37162;Laerm;68342;52.598;13.450;2023-04-24T03:03:08;42.53;37.31;58.16;;
37162;Laerm;68342;52.598;13.450;2023-04-24T03:05:33;44.03;38.21;56.16;;
37162;Laerm;68342;52.598;13.450;2023-04-24T03:07:58;50.21;39.33;63.61;;
37162;Laerm;68342;52.598;13.450;2023-04-24T03:10:24;45.68;37.10;65.56;;
37162;Laerm;68342;52.598;13.450;2023-04-24T03:12:49;42.86;37.59;55.26;;
37162;Laerm;68342;52.598;13.450;2023-04-24T03:15:14;43.26;39.25;55.54;;
37162;Laerm;68342;52.598;13.450;2023-04-24T03:17:40;44.94;39.75;58.91;;
37162;Laerm;68342;52.598;13.450;2023-04-24T03:20:05;45.01;40.03;56.45;;
37162;Laerm;68342;52.598;13.450;2023-04-24T03:22:31;45.22;39.90;56.60;;
37162;Laerm;68342;52.598;13.450;2023-04-24T03:24:57;45.49;40.52;58.78;;
37162;Laerm;68342;52.598;13.450;2023-04-24T03:27:23;45.88;40.87;59.06;;
37162;Laerm;68342;52.598;13.450;2023-04-24T03:29:48;46.20;41.52;54.13;;
37162;Laerm;68342;52.598;13.450;2023-04-24T03:32:16;46.60;41.59;56.77;;
37162;Laerm;68342;52.598;13.450;2023-04-24T03:34:41;55.82;41.84;72.87;;
37162;Laerm;68342;52.598;13.450;2023-04-24T03:37:07;57.63;42.35;75.98;;
37162;Laerm;68342;52.598;13.450;2023-04-24T03:39:32;52.32;42.72;67.66;;
37162;Laerm;68342;52.598;13.450;2023-04-24T03:41:57;54.34;41.61;71.12;;
37162;Laerm;68342;52.598;13.450;2023-04-24T03:44:22;54.44;42.82;68.54;;
37162;Laerm;68342;52.598;13.450;2023-04-24T03:46:48;56.07;43.25;68.86;;
37162;Laerm;68342;52.598;13.450;2023-04-24T03:49:13;54.44;42.01;68.61;;
37162;Laerm;68342;52.598;13.450;2023-04-24T03:51:38;53.47;42.28;67.96;;
37162;Laerm;68342;52.598;13.450;2023-04-24T03:54:03;61.09;42.92;81.02;;
37162;Laerm;68342;52.598;13.450;2023-04-24T03:56:28;63.72;43.17;80.04;;
37162;Laerm;68342;52.598;13.450;2023-04-24T03:58:54;53.94;43.85;73.84;;
37162;Laerm;68342;52.598;13.450;2023-04-24T04:01:19;49.49;43.85;61.28;;
37162;Laerm;68342;52.598;13.450;2023-04-24T04:03:45;49.24;43.13;62.31;;
37162;Laerm;68342;52.598;13.450;2023-04-24T04:06:11;55.04;43.11;72.22;;
37162;Laerm;68342;52.598;13.450;2023-04-24T04:08:37;49.06;42.85;62.08;;
37162;Laerm;68342;52.598;13.450;2023-04-24T04:11:03;49.94;43.90;65.08;;
37162;Laerm;68342;52.598;13.450;2023-04-24T04:13:28;49.71;43.96;64.83;;
37162;Laerm;68342;52.598;13.450;2023-04-24T04:15:53;50.78;43.20;62.72;;
37162;Laerm;68342;52.598;13.450;2023-04-24T04:18:19;51.21;45.81;63.60;;
37162;Laerm;68342;52.598;13.450;2023-04-24T04:20:44;49.65;44.53;59.92;;
37162;Laerm;68342;52.598;13.450;2023-04-24T04:23:09;50.89;44.90;63.95;;
37162;Laerm;68342;52.598;13.450;2023-04-24T04:25:34;51.26;43.11;64.58;;
37162;Laerm;68342;52.598;13.450;2023-04-24T04:28:00;49.52;43.53;60.84;;
37162;Laerm;68342;52.598;13.450;2023-04-24T04:30:25;50.65;43.23;62.05;;
37162;Laerm;68342;52.598;13.450;2023-04-24T04:32:51;49.65;43.95;60.37;;
37162;Laerm;68342;52.598;13.450;2023-04-24T04:35:16;49.18;44.30;69.55;;
37162;Laerm;68342;52.598;13.450;2023-04-24T04:37:41;49.57;44.20;61.31;;
37162;Laerm;68342;52.598;13.450;2023-04-24T04:40:06;48.49;43.77;60.24;;
37162;Laerm;68342;52.598;13.450;2023-04-24T04:42:32;48.45;43.26;63.20;;
37162;Laerm;68342;52.598;13.450;2023-04-24T04:44:59;47.96;43.79;62.18;;
37162;Laerm;68342;52.598;13.450;2023-04-24T04:47:24;47.25;42.24;62.42;;
37162;Laerm;68342;52.598;13.450;2023-04-24T04:49:51;50.39;43.65;64.06;;
37162;Laerm;68342;52.598;13.450;2023-04-24T04:52:17;50.44;43.70;65.97;;
37162;Laerm;68342;52.598;13.450;2023-04-24T04:54:42;47.26;42.84;60.61;;
37162;Laerm;68342;52.598;13.450;2023-04-24T04:57:08;47.75;43.30;58.82;;
37162;Laerm;68342;52.598;13.450;2023-04-24T04:59:34;49.54;43.69;72.77;;
37162;Laerm;68342;52.598;13.450;2023-04-24T05:01:59;52.12;44.14;69.50;;
37162;Laerm;68342;52.598;13.450;2023-04-24T05:04:24;49.18;43.85;60.15;;
37162;Laerm;68342;52.598;13.450;2023-04-24T05:06:53;53.92;43.40;74.57;;
37162;Laerm;68342;52.598;13.450;2023-04-24T05:09:18;48.44;42.84;62.66;;
37162;Laerm;68342;52.598;13.450;2023-04-24T05:11:44;49.06;42.55;63.29;;
37162;Laerm;68342;52.598;13.450;2023-04-24T05:14:09;49.34;43.32;62.28;;
37162;Laerm;68342;52.598;13.450;2023-04-24T05:16:34;48.21;43.81;64.06;;
37162;Laerm;68342;52.598;13.450;2023-04-24T05:19:00;49.11;42.81;62.43;;
37162;Laerm;68342;52.598;13.450;2023-04-24T05:21:25;47.36;43.22;58.59;;
37162;Laerm;68342;52.598;13.450;2023-04-24T05:23:51;47.14;43.48;57.07;;
37162;Laerm;68342;52.598;13.450;2023-04-24T05:26:17;47.18;42.98;56.45;;
37162;Laerm;68342;52.598;13.450;2023-04-24T05:28:42;47.09;43.26;61.32;;
37162;Laerm;68342;52.598;13.450;2023-04-24T05:31:08;48.78;44.16;67.53;;
37162;Laerm;68342;52.598;13.450;2023-04-24T05:33:33;53.25;44.44;68.69;;
37162;Laerm;68342;52.598;13.450;2023-04-24T05:35:58;48.38;42.09;59.26;;
37162;Laerm;68342;52.598;13.450;2023-04-24T05:38:23;46.77;42.81;58.39;;
37162;Laerm;68342;52.598;13.450;2023-04-24T05:40:49;47.46;43.83;57.40;;
37162;Laerm;68342;52.598;13.450;2023-04-24T05:43:14;47.59;42.54;63.50;;
37162;Laerm;68342;52.598;13.450;2023-04-24T05:45:39;48.41;41.55;65.67;;
37162;Laerm;68342;52.598;13.450;2023-04-24T05:48:05;48.95;43.56;66.70;;
37162;Laerm;68342;52.598;13.450;2023-04-24T05:50:30;46.62;41.78;60.65;;
37162;Laerm;68342;52.598;13.450;2023-04-24T05:52:56;46.24;41.62;57.70;;
37162;Laerm;68342;52.598;13.450;2023-04-24T05:55:23;46.96;42.37;58.57;;
37162;Laerm;68342;52.598;13.450;2023-04-24T05:57:48;47.45;42.39;57.73;;
37162;Laerm;68342;52.598;13.450;2023-04-24T06:00:14;51.09;41.97;66.97;;
37162;Laerm;68342;52.598;13.450;2023-04-24T06:02:39;47.32;41.70;66.21;;
37162;Laerm;68342;52.598;13.450;2023-04-24T06:05:04;48.18;43.40;59.05;;
37162;Laerm;68342;52.598;13.450;2023-04-24T06:07:30;47.28;42.61;61.69;;
37162;Laerm;68342;52.598;13.450;2023-04-24T06:09:55;47.92;40.89;60.65;;
37162;Laerm;68342;52.598;13.450;2023-04-24T06:12:21;48.07;44.00;60.08;;
37162;Laerm;68342;52.598;13.450;2023-04-24T06:14:46;49.15;42.73;65.09;;
37162;Laerm;68342;52.598;13.450;2023-04-24T06:17:12;47.49;42.37;57.83;;
37162;Laerm;68342;52.598;13.450;2023-04-24T06:19:37;47.26;42.93;59.79;;
37162;Laerm;68342;52.598;13.450;2023-04-24T06:22:03;47.36;41.91;59.84;;
37162;Laerm;68342;52.598;13.450;2023-04-24T06:24:28;50.94;42.34;70.40;;
37162;Laerm;68342;52.598;13.450;2023-04-24T06:26:54;52.16;42.57;76.75;;
37162;Laerm;68342;52.598;13.450;2023-04-24T06:29:20;46.84;40.70;59.68;;
37162;Laerm;68342;52.598;13.450;2023-04-24T06:31:45;48.39;43.66;61.62;;
37162;Laerm;68342;52.598;13.450;2023-04-24T06:34:10;47.73;41.73;63.85;;
37162;Laerm;68342;52.598;13.450;2023-04-24T06:36:35;49.00;42.12;62.58;;
37162;Laerm;68342;52.598;13.450;2023-04-24T06:39:01;46.79;41.94;60.27;;
37162;Laerm;68342;52.598;13.450;2023-04-24T06:41:27;47.16;42.68;58.27;;
37162;Laerm;68342;52.598;13.450;2023-04-24T06:43:52;48.73;42.69;61.57;;
37162;Laerm;68342;52.598;13.450;2023-04-24T06:46:18;49.91;43.71;71.09;;
37162;Laerm;68342;52.598;13.450;2023-04-24T06:48:43;48.34;40.47;63.77;;
37162;Laerm;68342;52.598;13.450;2023-04-24T06:51:08;47.91;40.44;65.61;;
37162;Laerm;68342;52.598;13.450;2023-04-24T06:53:34;47.36;41.37;60.14;;
37162;Laerm;68342;52.598;13.450;2023-04-24T06:56:00;46.94;40.70;59.22;;
37162;Laerm;68342;52.598;13.450;2023-04-24T06:58:25;47.99;41.99;59.55;;
37162;Laerm;68342;52.598;13.450;2023-04-24T07:00:50;48.54;43.32;68.80;;
37162;Laerm;68342;52.598;13.450;2023-04-24T07:03:16;51.13;42.36;69.30;;
37162;Laerm;68342;52.598;13.450;2023-04-24T07:05:41;49.23;42.69;61.06;;
37162;Laerm;68342;52.598;13.450;2023-04-24T07:08:06;47.06;40.21;57.52;;
37162;Laerm;68342;52.598;13.450;2023-04-24T07:10:32;46.02;40.50;58.51;;
37162;Laerm;68342;52.598;13.450;2023-04-24T07:12:59;45.92;40.99;59.33;;
37162;Laerm;68342;52.598;13.450;2023-04-24T07:15:24;46.20;41.45;58.34;;
37162;Laerm;68342;52.598;13.450;2023-04-24T07:17:49;45.37;40.86;56.75;;
37162;Laerm;68342;52.598;13.450;2023-04-24T07:20:15;46.43;41.44;64.74;;
37162;Laerm;68342;52.598;13.450;2023-04-24T07:22:40;45.93;39.93;59.63;;
37162;Laerm;68342;52.598;13.450;2023-04-24T07:25:06;48.01;41.10;62.29;;
37162;Laerm;68342;52.598;13.450;2023-04-24T07:27:32;46.66;40.59;61.52;;
37162;Laerm;68342;52.598;13.450;2023-04-24T07:29:57;47.91;41.13;63.57;;
37162;Laerm;68342;52.598;13.450;2023-04-24T07:32:23;47.01;40.11;68.20;;
37162;Laerm;68342;52.598;13.450;2023-04-24T07:34:48;47.13;39.67;61.08;;
37162;Laerm;68342;52.598;13.450;2023-04-24T07:37:13;47.05;39.07;63.46;;
37162;Laerm;68342;52.598;13.450;2023-04-24T07:39:39;45.47;40.16;65.80;;
37162;Laerm;68342;52.598;13.450;2023-04-24T07:42:04;46.06;40.33;60.15;;
37162;Laerm;68342;52.598;13.450;2023-04-24T07:44:29;46.11;39.71;56.53;;
37162;Laerm;68342;52.598;13.450;2023-04-24T07:46:55;47.83;40.72;62.10;;
37162;Laerm;68342;52.598;13.450;2023-04-24T07:49:20;46.92;40.33;62.41;;
37162;Laerm;68342;52.598;13.450;2023-04-24T07:51:46;54.04;40.32;78.25;;
37162;Laerm;68342;52.598;13.450;2023-04-24T07:54:11;48.37;41.36;59.25;;
37162;Laerm;68342;52.598;13.450;2023-04-24T07:56:36;43.90;39.65;56.62;;
37162;Laerm;68342;52.598;13.450;2023-04-24T07:59:04;43.33;38.22;58.08;;
37162;Laerm;68342;52.598;13.450;2023-04-24T08:01:29;42.57;37.31;55.27;;
37162;Laerm;68342;52.598;13.450;2023-04-24T08:03:54;44.06;38.73;58.38;;
37162;Laerm;68342;52.598;13.450;2023-04-24T08:06:20;49.22;40.08;66.13;;
37162;Laerm;68342;52.598;13.450;2023-04-24T08:08:45;45.73;38.27;56.67;;
37162;Laerm;68342;52.598;13.450;2023-04-24T08:11:10;44.58;39.04;59.11;;
37162;Laerm;68342;52.598;13.450;2023-04-24T08:13:36;45.11;40.77;60.72;;
37162;Laerm;68342;52.598;13.450;2023-04-24T08:16:02;45.17;40.26;63.09;;
37162;Laerm;68342;52.598;13.450;2023-04-24T08:18:27;44.85;38.55;59.19;;
37162;Laerm;68342;52.598;13.450;2023-04-24T08:20:53;46.92;41.37;62.42;;
37162;Laerm;68342;52.598;13.450;2023-04-24T08:23:18;46.27;38.94;58.05;;
37162;Laerm;68342;52.598;13.450;2023-04-24T08:25:43;45.66;39.91;57.14;;
37162;Laerm;68342;52.598;13.450;2023-04-24T08:28:09;45.08;40.04;57.76;;
37162;Laerm;68342;52.598;13.450;2023-04-24T08:30:35;45.81;37.50;62.91;;
37162;Laerm;68342;52.598;13.450;2023-04-24T08:33:01;44.66;38.64;56.92;;
37162;Laerm;68342;52.598;13.450;2023-04-24T08:35:26;47.48;40.20;58.73;;
37162;Laerm;68342;52.598;13.450;2023-04-24T08:37:52;45.04;37.77;62.31;;
37162;Laerm;68342;52.598;13.450;2023-04-24T08:40:17;43.65;37.37;58.89;;
37162;Laerm;68342;52.598;13.450;2023-04-24T08:42:43;43.84;37.45;59.43;;
37162;Laerm;68342;52.598;13.450;2023-04-24T08:45:09;44.87;38.56;62.76;;
37162;Laerm;68342;52.598;13.450;2023-04-24T08:47:35;44.00;38.88;58.65;;
37162;Laerm;68342;52.598;13.450;2023-04-24T08:50:00;45.58;39.87;56.50;;
37162;Laerm;68342;52.598;13.450;2023-04-24T08:52:27;46.55;39.43;60.32;;
37162;Laerm;68342;52.598;13.450;2023-04-24T08:54:53;48.31;39.25;67.04;;
37162;Laerm;68342;52.598;13.450;2023-04-24T08:57:19;46.28;37.87;64.91;;
37162;Laerm;68342;52.598;13.450;2023-04-24T08:59:44;47.04;38.56;60.63;;
37162;Laerm;68342;52.598;13.450;2023-04-24T09:02:10;43.33;38.02;55.97;;
37162;Laerm;68342;52.598;13.450;2023-04-24T09:04:36;43.59;39.26;57.08;;
37162;Laerm;68342;52.598;13.450;2023-04-24T09:07:02;44.13;39.15;58.17;;
37162;Laerm;68342;52.598;13.450;2023-04-24T09:09:29;46.11;39.02;63.95;;
37162;Laerm;68342;52.598;13.450;2023-04-24T09:11:55;44.37;39.11;56.50;;
37162;Laerm;68342;52.598;13.450;2023-04-24T09:14:22;45.13;39.99;58.25;;
37162;Laerm;68342;52.598;13.450;2023-04-24T09:16:48;46.99;40.16;57.77;;
37162;Laerm;68342;52.598;13.450;2023-04-24T09:19:13;47.40;40.37;60.29;;
37162;Laerm;68342;52.598;13.450;2023-04-24T09:21:39;47.30;37.72;61.90;;
37162;Laerm;68342;52.598;13.450;2023-04-24T09:24:07;47.15;38.78;60.86;;
37162;Laerm;68342;52.598;13.450;2023-04-24T09:26:36;44.36;39.08;58.37;;
37162;Laerm;68342;52.598;13.450;2023-04-24T09:29:01;45.32;40.46;58.02;;
37162;Laerm;68342;52.598;13.450;2023-04-24T09:31:28;44.19;38.65;55.71;;
37162;Laerm;68342;52.598;13.450;2023-04-24T09:36:19;43.02;38.53;59.43;;
37162;Laerm;68342;52.598;13.450;2023-04-24T09:38:44;44.34;38.94;58.16;;
37162;Laerm;68342;52.598;13.450;2023-04-24T09:41:13;44.76;39.12;62.85;;
37162;Laerm;68342;52.598;13.450;2023-04-24T09:43:38;45.13;40.86;57.43;;
37162;Laerm;68342;52.598;13.450;2023-04-24T09:46:04;46.29;40.53;59.09;;
37162;Laerm;68342;52.598;13.450;2023-04-24T09:48:34;46.58;40.11;59.83;;
37162;Laerm;68342;52.598;13.450;2023-04-24T09:51:00;47.68;39.45;64.45;;
37162;Laerm;68342;52.598;13.450;2023-04-24T09:53:26;44.99;39.46;59.13;;
37162;Laerm;68342;52.598;13.450;2023-04-24T09:55:52;43.42;38.13;56.91;;
37162;Laerm;68342;52.598;13.450;2023-04-24T09:58:18;44.61;38.99;61.23;;
37162;Laerm;68342;52.598;13.450;2023-04-24T10:00:43;46.60;39.69;69.71;;
37162;Laerm;68342;52.598;13.450;2023-04-24T10:03:10;44.16;39.83;56.92;;
37162;Laerm;68342;52.598;13.450;2023-04-24T10:05:36;45.84;39.65;61.73;;
37162;Laerm;68342;52.598;13.450;2023-04-24T10:10:28;47.31;40.69;61.93;;
37162;Laerm;68342;52.598;13.450;2023-04-24T10:12:53;44.53;39.75;60.17;;
37162;Laerm;68342;52.598;13.450;2023-04-24T10:15:19;46.76;40.58;60.99;;
37162;Laerm;68342;52.598;13.450;2023-04-24T10:17:49;47.28;41.56;65.62;;
37162;Laerm;68342;52.598;13.450;2023-04-24T10:20:21;47.42;40.40;62.17;;
37162;Laerm;68342;52.598;13.450;2023-04-24T10:22:51;47.09;40.06;61.54;;
37162;Laerm;68342;52.598;13.450;2023-04-24T10:25:26;46.27;41.57;57.25;;
37162;Laerm;68342;52.598;13.450;2023-04-24T10:27:52;44.81;39.11;63.61;;
37162;Laerm;68342;52.598;13.450;2023-04-24T10:30:18;46.69;40.49;62.72;;
37162;Laerm;68342;52.598;13.450;2023-04-24T10:32:44;45.16;39.70;57.28;;
37162;Laerm;68342;52.598;13.450;2023-04-24T10:35:09;44.23;39.77;61.06;;
37162;Laerm;68342;52.598;13.450;2023-04-24T10:37:36;44.07;39.36;58.02;;
37162;Laerm;68342;52.598;13.450;2023-04-24T10:40:02;44.44;38.45;60.58;;
37162;Laerm;68342;52.598;13.450;2023-04-24T10:42:28;45.57;40.62;60.27;;
37162;Laerm;68342;52.598;13.450;2023-04-24T10:44:53;45.38;39.84;67.88;;
37162;Laerm;68342;52.598;13.450;2023-04-24T10:47:20;46.88;40.68;70.89;;
37162;Laerm;68342;52.598;13.450;2023-04-24T10:49:45;45.92;41.12;59.80;;
37162;Laerm;68342;52.598;13.450;2023-04-24T10:52:11;47.33;39.92;64.79;;
37162;Laerm;68342;52.598;13.450;2023-04-24T10:59:42;45.42;39.32;60.58;;
37162;Laerm;68342;52.598;13.450;2023-04-24T11:02:08;47.38;42.00;62.09;;
37162;Laerm;68342;52.598;13.450;2023-04-24T11:04:33;47.79;40.99;62.28;;
37162;Laerm;68342;52.598;13.450;2023-04-24T11:07:00;45.87;41.08;56.99;;
37162;Laerm;68342;52.598;13.450;2023-04-24T11:09:28;47.23;41.04;60.34;;
37162;Laerm;68342;52.598;13.450;2023-04-24T11:12:05;46.56;40.01;58.58;;
37162;Laerm;68342;52.598;13.450;2023-04-24T11:17:32;45.14;39.79;59.16;;
37162;Laerm;68342;52.598;13.450;2023-04-24T11:20:04;46.50;41.13;57.89;;
37162;Laerm;68342;52.598;13.450;2023-04-24T11:22:32;44.93;40.38;57.86;;
37162;Laerm;68342;52.598;13.450;2023-04-24T11:24:59;45.44;40.56;60.04;;
37162;Laerm;68342;52.598;13.450;2023-04-24T11:27:28;46.25;40.32;61.26;;
37162;Laerm;68342;52.598;13.450;2023-04-24T11:34:58;47.07;41.69;64.08;;
37162;Laerm;68342;52.598;13.450;2023-04-24T11:37:26;46.75;40.86;62.50;;
37162;Laerm;68342;52.598;13.450;2023-04-24T11:39:52;46.16;40.70;60.48;;
37162;Laerm;68342;52.598;13.450;2023-04-24T11:42:18;47.02;41.51;60.16;;
37162;Laerm;68342;52.598;13.450;2023-04-24T11:44:43;47.03;40.44;65.19;;
37162;Laerm;68342;52.598;13.450;2023-04-24T11:47:08;47.77;40.82;70.70;;
37162;Laerm;68342;52.598;13.450;2023-04-24T11:49:36;45.64;39.86;63.20;;
37162;Laerm;68342;52.598;13.450;2023-04-24T11:52:01;47.00;40.96;67.74;;
37162;Laerm;68342;52.598;13.450;2023-04-24T11:54:27;46.86;41.63;60.44;;
37162;Laerm;68342;52.598;13.450;2023-04-24T11:56:52;57.05;45.31;65.38;;
37162;Laerm;68342;52.598;13.450;2023-04-24T11:59:17;59.64;49.54;68.34;;
37162;Laerm;68342;52.598;13.450;2023-04-24T12:01:46;47.40;41.52;61.54;;
37162;Laerm;68342;52.598;13.450;2023-04-24T12:04:11;47.95;41.68;67.31;;
37162;Laerm;68342;52.598;13.450;2023-04-24T12:06:37;46.52;41.80;59.36;;
37162;Laerm;68342;52.598;13.450;2023-04-24T12:09:02;46.05;40.93;57.76;;
37162;Laerm;68342;52.598;13.450;2023-04-24T12:11:27;46.03;41.54;60.52;;
37162;Laerm;68342;52.598;13.450;2023-04-24T12:13:53;47.82;40.96;61.51;;
37162;Laerm;68342;52.598;13.450;2023-04-24T12:16:18;47.83;41.13;70.29;;
37162;Laerm;68342;52.598;13.450;2023-04-24T12:18:44;46.19;39.65;59.73;;
37162;Laerm;68342;52.598;13.450;2023-04-24T12:23:42;51.19;39.41;80.45;;
37162;Laerm;68342;52.598;13.450;2023-04-24T12:26:07;43.87;38.57;58.17;;
37162;Laerm;68342;52.598;13.450;2023-04-24T12:28:36;45.18;40.05;59.77;;
37162;Laerm;68342;52.598;13.450;2023-04-24T12:31:02;50.99;40.43;68.51;;
37162;Laerm;68342;52.598;13.450;2023-04-24T12:33:27;49.61;41.59;69.73;;
37162;Laerm;68342;52.598;13.450;2023-04-24T12:35:53;52.24;41.84;67.07;;
37162;Laerm;68342;52.598;13.450;2023-04-24T12:38:22;67.42;47.08;76.74;;
37162;Laerm;68342;52.598;13.450;2023-04-24T12:40:47;69.98;42.61;80.30;;
37162;Laerm;68342;52.598;13.450;2023-04-24T12:43:21;69.53;56.27;79.31;;
37162;Laerm;68342;52.598;13.450;2023-04-24T12:45:47;64.23;41.72;76.31;;
37162;Laerm;68342;52.598;13.450;2023-04-24T12:48:13;49.73;41.58;57.72;;
37162;Laerm;68342;52.598;13.450;2023-04-24T12:50:41;46.39;41.01;59.30;;
37162;Laerm;68342;52.598;13.450;2023-04-24T12:53:07;46.05;40.96;58.36;;
37162;Laerm;68342;52.598;13.450;2023-04-24T12:55:33;46.51;40.55;62.65;;
37162;Laerm;68342;52.598;13.450;2023-04-24T12:57:59;62.72;42.82;81.78;;
37162;Laerm;68342;52.598;13.450;2023-04-24T13:00:24;70.98;59.59;79.88;;
37162;Laerm;68342;52.598;13.450;2023-04-24T13:02:49;63.47;46.67;72.61;;
37162;Laerm;68342;52.598;13.450;2023-04-24T13:05:15;57.97;45.65;69.84;;
37162;Laerm;68342;52.598;13.450;2023-04-24T13:07:40;58.87;44.05;71.85;;
37162;Laerm;68342;52.598;13.450;2023-04-24T13:10:06;51.31;42.57;64.70;;
37162;Laerm;68342;52.598;13.450;2023-04-24T13:12:31;49.92;44.27;60.74;;
37162;Laerm;68342;52.598;13.450;2023-04-24T13:14:57;46.72;42.95;60.61;;
37162;Laerm;68342;52.598;13.450;2023-04-24T13:17:22;45.18;40.89;58.21;;
37162;Laerm;68342;52.598;13.450;2023-04-24T13:19:48;46.64;42.24;58.70;;
37162;Laerm;68342;52.598;13.450;2023-04-24T13:22:14;47.52;44.26;61.65;;
37162;Laerm;68342;52.598;13.450;2023-04-24T13:24:39;49.48;44.54;60.17;;
37162;Laerm;68342;52.598;13.450;2023-04-24T13:27:06;49.09;43.11;60.11;;
37162;Laerm;68342;52.598;13.450;2023-04-24T13:29:31;47.25;42.91;59.83;;
37162;Laerm;68342;52.598;13.450;2023-04-24T13:31:56;46.98;41.99;57.84;;
37162;Laerm;68342;52.598;13.450;2023-04-24T13:34:25;45.97;41.29;62.43;;
37162;Laerm;68342;52.598;13.450;2023-04-24T13:36:52;54.30;40.81;70.08;;
37162;Laerm;68342;52.598;13.450;2023-04-24T13:39:17;48.92;42.65;59.91;;
37162;Laerm;68342;52.598;13.450;2023-04-24T13:41:42;48.18;43.72;58.77;;
37162;Laerm;68342;52.598;13.450;2023-04-24T13:44:08;47.47;42.78;60.62;;
37162;Laerm;68342;52.598;13.450;2023-04-24T13:46:33;48.63;42.69;74.86;;